Time;durP1;ratioP1;P1;durP2;ratioP2;P2;SDS_P1;SDS_P2;PMS_P1;PMS_P2;Temp;Humidity;BMP_temperature;BMP_pressure;BME280_temperature;BME280_humidity;BME280_pressure;Samples;Min_cycle;Max_cycle;Signal;HPM_P1;HPM_P2
2024/03/01 00:01:39;;;;;;;;;1.00;0.00;;;;;21.90;43.23;100381.25;6399689;22;45207;-75
2024/03/01 00:04:05;;;;;;;;;1.33;0.00;;;;;21.99;43.57;100390.69;6399795;22;45216;-75
2024/03/01 00:06:30;;;;;;;;;0.00;0.00;;;;;21.89;42.89;100382.25;6400071;22;46287;-75
2024/03/01 00:08:55;;;;;;;;;1.00;0.00;;;;;21.99;43.71;100390.69;6399155;22;62840;-76
2024/03/01 00:11:21;;;;;;;;;1.00;0.00;;;;;21.98;42.97;100394.38;6399074;22;45291;-76
2024/03/01 00:13:46;;;;;;;;;0.00;0.00;;;;;21.97;43.60;100392.72;6399706;22;45388;-76
2024/03/01 00:16:12;;;;;;;;;0.00;0.00;;;;;21.87;42.86;100374.50;6399128;22;51638;-74
2024/03/01 00:18:37;;;;;;;;;0.00;0.00;;;;;21.98;42.89;100386.41;6399522;22;45207;-77
2024/03/01 00:21:03;;;;;;;;;0.00;0.00;;;;;21.97;43.46;100390.06;6400002;22;45295;-73
2024/03/01 00:23:28;;;;;;;;;0.00;0.00;;;;;21.94;43.28;100391.25;6371476;22;45340;-75
2024/03/01 00:25:54;;;;;;;;;1.00;0.00;;;;;21.96;42.70;100397.19;6370509;22;47953;-76
2024/03/01 00:28:20;;;;;;;;;0.00;0.00;;;;;21.96;42.83;100396.41;6401081;22;45268;-75
2024/03/01 00:30:46;;;;;;;;;1.67;1.00;;;;;21.84;42.90;100369.56;6400831;22;45255;-76
2024/03/01 00:33:11;;;;;;;;;0.00;0.00;;;;;21.83;42.75;100381.19;6401191;22;45332;-76
2024/03/01 00:35:36;;;;;;;;;0.00;0.00;;;;;21.95;42.87;100400.03;6400264;22;62150;-76
2024/03/01 00:38:01;;;;;;;;;0.00;0.00;;;;;21.94;42.78;100407.16;6400840;22;45349;-77
2024/03/01 00:40:27;;;;;;;;;1.00;0.00;;;;;21.94;42.77;100399.22;6400903;22;45442;-75
2024/03/01 00:42:52;;;;;;;;;0.00;0.00;;;;;21.94;42.75;100401.84;6400867;22;45319;-76
2024/03/01 00:45:18;;;;;;;;;0.00;0.00;;;;;21.89;42.77;100395.50;6400953;22;45367;-76
2024/03/01 00:47:52;;;;;;;;;0.00;0.00;;;;;21.93;42.59;100400.25;6400457;22;59170;-76
2024/03/01 00:50:21;;;;;;;;;0.00;0.00;;;;;21.88;43.26;100392.03;6401256;22;45306;-76
2024/03/01 00:52:47;;;;;;;;;0.00;0.00;;;;;21.93;42.71;100396.78;6400736;22;45343;-76
2024/03/01 00:55:13;;;;;;;;;0.00;0.00;;;;;21.93;43.20;100399.41;6400080;22;46357;-76
2024/03/01 00:57:38;;;;;;;;;0.00;0.00;;;;;21.82;42.80;100387.47;6400620;22;45485;-75
2024/03/01 01:00:06;;;;;;;;;0.00;0.00;;;;;21.76;42.67;100362.56;6400843;22;47870;-75
2024/03/01 01:02:31;;;;;;;;;0.00;0.00;;;;;21.92;42.92;100397.75;6372301;22;45209;-76
2024/03/01 01:04:57;;;;;;;;;1.00;0.00;;;;;21.87;42.48;100387.75;6400408;22;47024;-77
2024/03/01 01:07:24;;;;;;;;;0.00;0.00;;;;;21.87;42.63;100386.88;6400591;22;45295;-75
2024/03/01 01:09:49;;;;;;;;;0.00;0.00;;;;;21.89;42.47;100390.19;6400508;22;45161;-75
2024/03/01 01:12:14;;;;;;;;;0.00;0.00;;;;;21.81;42.36;100378.69;6401045;22;45337;-75
2024/03/01 01:14:40;;;;;;;;;0.00;0.00;;;;;21.89;42.99;100379.59;6400911;22;45219;-75
2024/03/01 01:17:05;;;;;;;;;1.67;0.00;;;;;21.82;42.89;100366.28;6400306;22;45251;-75
2024/03/01 01:19:33;;;;;;;;;0.00;0.00;;;;;21.82;42.88;100371.56;6400658;22;45248;-75
2024/03/01 01:21:58;;;;;;;;;0.00;0.00;;;;;21.88;42.56;100375.34;6401156;22;45201;-75
2024/03/01 01:24:23;;;;;;;;;0.00;0.00;;;;;21.87;42.82;100371.00;6400631;22;45314;-74
2024/03/01 01:26:49;;;;;;;;;0.00;0.00;;;;;21.87;42.93;100374.50;6401016;22;45328;-77
2024/03/01 01:29:14;;;;;;;;;0.00;0.00;;;;;21.78;42.48;100360.53;6400752;22;45250;-76
2024/03/01 01:31:39;;;;;;;;;1.33;0.33;;;;;21.86;42.85;100370.19;6400994;22;45389;-75
2024/03/01 01:34:05;;;;;;;;;0.00;0.00;;;;;21.88;42.22;100368.22;6400864;22;46241;-75
2024/03/01 01:36:30;;;;;;;;;1.00;0.00;;;;;21.86;42.48;100362.22;6400198;22;45346;-77
2024/03/01 01:38:55;;;;;;;;;0.00;0.00;;;;;21.89;42.64;100363.72;6400198;22;45301;-75
2024/03/01 01:41:21;;;;;;;;;0.00;0.00;;;;;21.89;42.15;100353.94;6400647;22;45304;-75
2024/03/01 01:43:46;;;;;;;;;1.00;0.00;;;;;21.89;42.14;100353.94;6400753;22;45298;-75
2024/03/01 01:46:14;;;;;;;;;0.00;0.00;;;;;21.89;42.41;100340.69;6400886;22;45408;-75
2024/03/01 01:48:42;;;;;;;;;0.00;0.00;;;;;21.89;42.11;100339.88;6401022;22;45279;-75
2024/03/01 01:51:08;;;;;;;;;1.00;0.00;;;;;21.80;42.38;100312.69;6371642;22;45246;-76
2024/03/01 01:53:34;;;;;;;;;0.00;0.00;;;;;21.85;42.42;100316.41;6400740;22;45959;-75
2024/03/01 01:56:01;;;;;;;;;0.00;0.00;;;;;21.87;42.51;100310.94;6400238;22;45270;-76
2024/03/01 01:58:28;;;;;;;;;0.00;0.00;;;;;21.87;42.56;100299.50;6400233;22;45212;-75
2024/03/01 02:00:55;;;;;;;;;0.00;0.00;;;;;21.80;42.23;100289.69;6400597;22;45194;-76
2024/03/01 02:03:21;;;;;;;;;0.00;0.00;;;;;21.85;42.51;100292.59;6400200;22;47173;-75
2024/03/01 02:05:48;;;;;;;;;0.00;0.00;;;;;21.85;42.56;100295.22;6400371;22;45358;-75
2024/03/01 02:08:13;;;;;;;;;0.00;0.00;;;;;21.85;42.49;100297.06;6400375;22;45396;-76
2024/03/01 02:10:39;;;;;;;;;1.33;0.00;;;;;21.81;41.82;100298.44;6400865;22;45363;-76
2024/03/01 02:13:04;;;;;;;;;0.00;0.00;;;;;21.78;42.36;100294.34;6372206;22;45545;-76
2024/03/01 02:15:29;;;;;;;;;1.00;1.00;;;;;21.74;41.81;100290.44;6400675;22;45306;-75
2024/03/01 02:17:56;;;;;;;;;1.00;0.67;;;;;21.83;41.91;100314.97;6400758;22;45460;-76
2024/03/01 02:20:23;;;;;;;;;0.67;0.00;;;;;21.82;41.63;100322.09;6399731;22;45405;-76
2024/03/01 02:22:55;;;;;;;;;0.00;0.00;;;;;21.82;41.90;100311.50;6400586;22;46126;-76
2024/03/01 02:25:20;;;;;;;;;0.00;0.00;;;;;21.83;42.27;100320.25;6400056;22;45269;-75
2024/03/01 02:27:47;;;;;;;;;0.00;0.00;;;;;21.81;42.34;100311.66;6400582;22;45235;-75
2024/03/01 02:30:13;;;;;;;;;0.00;0.00;;;;;21.81;41.95;100311.66;6400955;22;45184;-76
2024/03/01 02:32:38;;;;;;;;;0.00;0.00;;;;;21.73;41.77;100294.91;6400017;22;47395;-75
2024/03/01 02:35:03;;;;;;;;;0.00;0.00;;;;;21.81;41.82;100309.03;6399425;22;55737;-76
2024/03/01 02:37:29;;;;;;;;;1.00;0.00;;;;;21.80;42.30;100308.22;6400711;22;45190;-76
2024/03/01 02:39:54;;;;;;;;;0.00;0.00;;;;;21.81;42.01;100315.13;6400302;22;51477;-76
2024/03/01 02:42:19;;;;;;;;;0.00;0.00;;;;;21.80;42.20;100310.88;6400067;22;57419;-75
2024/03/01 02:44:44;;;;;;;;;0.00;0.00;;;;;21.81;42.23;100309.03;6399499;22;60862;-76
2024/03/01 02:47:10;;;;;;;;;0.00;0.00;;;;;21.60;41.79;100268.31;6398606;22;56984;-75
2024/03/01 02:49:35;;;;;;;;;0.00;0.00;;;;;21.73;41.85;100283.50;6399733;22;50303;-75
2024/03/01 02:52:00;;;;;;;;;0.33;0.00;;;;;21.80;42.07;100292.34;6399693;22;64583;-75
2024/03/01 02:54:25;;;;;;;;;0.00;0.00;;;;;21.73;42.28;100286.97;6399972;22;54412;-76
2024/03/01 02:56:51;;;;;;;;;1.33;0.00;;;;;21.73;41.50;100280.84;6400189;22;45212;-75
2024/03/01 02:59:16;;;;;;;;;0.00;0.00;;;;;21.80;41.63;100284.41;6400260;22;50225;-75
2024/03/01 03:01:41;;;;;;;;;1.00;0.67;;;;;21.76;42.01;100277.00;6399958;22;46783;-77
2024/03/01 03:04:07;;;;;;;;;0.67;0.00;;;;;21.68;41.81;100257.59;6400183;22;45507;-75
2024/03/01 03:06:32;;;;;;;;;0.00;0.00;;;;;21.70;41.86;100260.88;6400724;22;45278;-76
2024/03/01 03:08:58;;;;;;;;;2.00;0.00;;;;;21.80;41.31;100268.50;6400686;22;45430;-76
2024/03/01 03:11:25;;;;;;;;;1.33;0.00;;;;;21.77;41.90;100262.75;6400159;22;45407;-75
2024/03/01 03:13:50;;;;;;;;;0.00;0.00;;;;;21.79;41.65;100261.56;6400349;22;45330;-75
2024/03/01 03:16:16;;;;;;;;;2.33;1.00;;;;;21.81;41.45;100261.34;6400087;22;45334;-76
2024/03/01 03:18:42;;;;;;;;;0.00;0.00;;;;;21.81;41.39;100259.53;6400144;22;45361;-77
2024/03/01 03:21:07;;;;;;;;;0.00;0.00;;;;;21.80;41.65;100260.56;6400264;22;46219;-76
2024/03/01 03:23:32;;;;;;;;;0.00;0.00;;;;;21.61;41.49;100225.78;6400586;22;45255;-75
2024/03/01 03:25:58;;;;;;;;;0.00;0.00;;;;;21.31;41.83;100183.66;6400005;22;45320;-75
2024/03/01 03:28:24;;;;;;;;;0.00;0.00;;;;;21.73;41.78;100236.66;6400038;22;45825;-75
2024/03/01 03:30:49;;;;;;;;;0.67;0.67;;;;;21.67;41.59;100223.38;6399912;22;46041;-75
2024/03/01 03:33:15;;;;;;;;;1.00;1.00;;;;;21.48;41.34;100201.88;6399928;22;45226;-75
2024/03/01 03:35:40;;;;;;;;;0.00;0.00;;;;;21.67;41.29;100226.03;6400524;22;45221;-76
2024/03/01 03:38:05;;;;;;;;;0.00;0.00;;;;;21.77;41.36;100238.94;6400428;22;45372;-75
2024/03/01 03:40:30;;;;;;;;;0.00;0.00;;;;;21.76;41.37;100246.06;6399482;22;63083;-76
2024/03/01 03:42:56;;;;;;;;;0.00;0.00;;;;;21.65;41.71;100225.41;6399968;22;45210;-75
2024/03/01 03:45:21;;;;;;;;;1.00;0.00;;;;;21.77;41.32;100246.88;6400042;22;45212;-76
2024/03/01 03:47:46;;;;;;;;;0.00;0.00;;;;;21.73;41.73;100226.06;6399358;22;59357;-75
2024/03/01 03:50:13;;;;;;;;;0.00;0.00;;;;;21.71;41.51;100220.16;6400015;22;50639;-76
2024/03/01 03:52:38;;;;;;;;;1.00;1.00;;;;;21.58;41.27;100201.53;6400252;22;45222;-75
2024/03/01 03:55:05;;;;;;;;;0.00;0.00;;;;;21.74;41.16;100219.78;6400232;22;45340;-76
2024/03/01 03:57:34;;;;;;;;;0.00;0.00;;;;;21.67;41.17;100213.63;6400233;22;45384;-76
2024/03/01 04:00:00;;;;;;;;;0.00;0.00;;;;;21.73;41.12;100220.78;6399417;22;47151;-75
2024/03/01 04:02:26;;;;;;;;;0.00;0.00;;;;;21.60;41.47;100194.22;6398750;22;45293;-76
2024/03/01 04:04:51;;;;;;;;;0.00;0.00;;;;;21.65;41.25;100196.31;6399715;22;45134;-75
2024/03/01 04:07:17;;;;;;;;;2.00;0.00;;;;;21.65;41.26;100205.03;6399620;22;52822;-75
2024/03/01 04:09:43;;;;;;;;;0.00;0.00;;;;;21.69;40.98;100210.78;6399253;22;46612;-76
2024/03/01 04:12:09;;;;;;;;;0.33;0.33;;;;;21.61;41.03;100199.31;6399886;22;45248;-75
2024/03/01 04:14:34;;;;;;;;;0.00;0.00;;;;;21.64;41.30;100203.41;6399934;22;45375;-75
2024/03/01 04:17:00;;;;;;;;;0.00;0.00;;;;;21.70;40.92;100207.91;6398872;22;45355;-76
2024/03/01 04:19:25;;;;;;;;;0.00;0.00;;;;;21.69;40.94;100201.00;6399539;22;46670;-75
2024/03/01 04:21:53;;;;;;;;;0.67;0.00;;;;;21.69;40.89;100190.41;6399861;22;45319;-75
2024/03/01 04:24:19;;;;;;;;;0.00;0.00;;;;;21.67;41.43;100196.91;6399765;22;45345;-75
2024/03/01 04:26:45;;;;;;;;;0.00;0.00;;;;;21.70;41.42;100201.84;6399536;22;45239;-75
2024/03/01 04:29:10;;;;;;;;;0.00;0.00;;;;;21.60;40.69;100184.44;6399210;22;46219;-75
2024/03/01 04:31:38;;;;;;;;;0.00;0.00;;;;;21.70;41.02;100183.28;6399054;22;45249;-76
2024/03/01 04:34:05;;;;;;;;;0.67;0.00;;;;;21.71;41.42;100175.16;6399659;22;45336;-75
2024/03/01 04:36:31;;;;;;;;;0.00;0.00;;;;;21.69;40.81;100158.66;6399314;22;45311;-75
2024/03/01 04:38:57;;;;;;;;;0.00;0.00;;;;;21.62;40.89;100136.63;6399874;22;45266;-76
2024/03/01 04:41:22;;;;;;;;;1.00;1.00;;;;;21.72;40.69;100133.63;6399301;22;45232;-75
2024/03/01 04:43:48;;;;;;;;;0.00;0.00;;;;;21.63;40.88;100122.34;6399512;22;45319;-76
2024/03/01 04:46:13;;;;;;;;;0.00;0.00;;;;;21.73;41.16;100137.88;6399572;22;45413;-75
2024/03/01 04:48:38;;;;;;;;;0.00;0.00;;;;;21.72;40.78;100129.13;6399555;22;46217;-75
2024/03/01 04:51:13;;;;;;;;;1.00;0.00;;;;;21.69;40.65;100120.75;6399095;22;45147;-76
2024/03/01 04:53:40;;;;;;;;;0.00;0.00;;;;;21.71;41.11;100116.06;6399429;22;45200;-76
2024/03/01 04:56:09;;;;;;;;;0.00;0.00;;;;;21.59;41.26;100092.81;6399351;22;45199;-73
2024/03/01 04:58:38;;;;;;;;;0.00;0.00;;;;;21.71;41.12;100106.31;6398880;22;46973;-75
2024/03/01 05:01:04;;;;;;;;;0.00;0.00;;;;;21.70;41.21;100093.28;6398409;22;45223;-75
2024/03/01 05:03:30;;;;;;;;;0.00;0.00;;;;;21.66;40.91;100078.78;6399230;22;45135;-75
2024/03/01 05:05:56;;;;;;;;;0.00;0.00;;;;;21.66;40.88;100086.72;6399173;22;45172;-75
2024/03/01 05:08:21;;;;;;;;;0.33;0.33;;;;;21.69;40.72;100083.69;6398974;22;46042;-75
2024/03/01 05:10:49;;;;;;;;;0.00;0.00;;;;;21.68;40.66;100080.22;6398944;22;45283;-75
2024/03/01 05:13:16;;;;;;;;;0.00;0.00;;;;;21.66;41.13;100063.72;6399123;22;45315;-75
2024/03/01 05:15:41;;;;;;;;;0.00;0.00;;;;;21.69;40.50;100065.16;6400388;22;45286;-76
2024/03/01 05:18:06;;;;;;;;;1.00;1.00;;;;;21.62;40.77;100047.41;6399876;22;63146;-76
2024/03/01 05:20:32;;;;;;;;;0.00;0.00;;;;;21.68;40.54;100059.03;6400892;22;45350;-76
2024/03/01 05:22:57;;;;;;;;;0.00;0.00;;;;;21.68;41.11;100047.63;6400881;22;45397;-75
2024/03/01 05:25:23;;;;;;;;;2.00;0.00;;;;;21.65;40.72;100040.09;6401217;22;45298;-76
2024/03/01 05:27:49;;;;;;;;;0.00;0.00;;;;;21.66;41.12;100017.91;6400265;22;46364;-75
2024/03/01 05:30:20;;;;;;;;;0.00;0.00;;;;;21.67;41.11;100015.06;6400573;22;45218;-77
2024/03/01 05:32:47;;;;;;;;;0.00;0.00;;;;;21.67;40.98;100009.78;6401026;22;45242;-76
2024/03/01 05:35:14;;;;;;;;;0.00;0.00;;;;;21.64;41.10;99978.41;6400499;22;45437;-76
2024/03/01 05:37:43;;;;;;;;;0.00;0.00;;;;;21.64;40.79;99983.69;6400622;22;45216;-75
2024/03/01 05:40:14;;;;;;;;;0.00;0.00;;;;;21.65;40.58;99987.16;6400388;22;45220;-76
2024/03/01 05:42:44;;;;;;;;;0.00;0.00;;;;;21.59;40.64;99970.25;6400532;22;45286;-73
2024/03/01 05:45:10;;;;;;;;;0.00;0.00;;;;;21.66;41.07;99970.25;6400482;22;45428;-76
2024/03/01 05:47:40;;;;;;;;;1.00;1.00;;;;;21.66;40.67;99964.94;6400122;22;46733;-76
2024/03/01 05:50:07;;;;;;;;;0.00;0.00;;;;;21.65;41.09;99968.63;6400186;22;45235;-75
2024/03/01 05:52:34;;;;;;;;;0.00;0.00;;;;;21.66;40.92;99967.59;6400536;22;45340;-74
2024/03/01 05:54:59;;;;;;;;;0.00;0.00;;;;;21.67;41.12;99958.66;6400743;22;45321;-76
2024/03/01 05:57:26;;;;;;;;;0.00;0.00;;;;;21.58;41.28;99942.13;6400079;22;45986;-74
2024/03/01 05:59:51;;;;;;;;;0.00;0.00;;;;;21.64;41.01;99962.50;6400257;22;45354;-75
2024/03/01 06:02:17;;;;;;;;;0.00;0.00;;;;;21.62;41.07;99932.78;6400785;22;45580;-76
2024/03/01 06:04:42;;;;;;;;;0.00;0.00;;;;;21.66;40.85;99928.72;6400993;22;45427;-76
2024/03/01 06:07:08;;;;;;;;;0.00;0.00;;;;;21.52;40.67;99902.19;6400100;22;45906;-76
2024/03/01 06:09:33;;;;;;;;;1.00;1.00;;;;;21.63;41.06;99908.75;6400443;22;45315;-75
2024/03/01 06:11:59;;;;;;;;;0.00;0.00;;;;;21.63;40.56;99927.28;6400910;22;45287;-74
2024/03/01 06:14:24;;;;;;;;;1.00;0.00;;;;;21.52;41.10;99891.63;6399948;22;45339;-76
2024/03/01 06:16:51;;;;;;;;;2.00;0.00;;;;;21.66;40.66;99902.25;6400038;22;47130;-77
2024/03/01 06:19:17;;;;;;;;;0.00;0.00;;;;;21.45;41.18;99837.88;6400092;22;45303;-76
2024/03/01 06:21:42;;;;;;;;;0.00;0.00;;;;;21.67;41.08;99876.59;6400264;22;45367;-76
2024/03/01 06:24:07;;;;;;;;;0.00;0.00;;;;;21.66;41.11;99873.13;6400225;22;45403;-75
2024/03/01 06:26:33;;;;;;;;;0.00;0.00;;;;;21.66;40.69;99869.66;6400527;22;45316;-75
2024/03/01 06:28:58;;;;;;;;;0.00;0.00;;;;;21.52;41.01;99841.31;6399699;22;45153;-75
2024/03/01 06:31:23;;;;;;;;;1.00;1.00;;;;;21.61;41.02;99844.63;6400378;22;45343;-76
2024/03/01 06:33:49;;;;;;;;;1.00;1.00;;;;;21.64;40.63;99843.41;6400499;22;45443;-75
2024/03/01 06:36:14;;;;;;;;;0.00;0.00;;;;;21.55;40.70;99831.34;6399922;22;60350;-75
2024/03/01 06:38:39;;;;;;;;;0.00;0.00;;;;;21.62;41.09;99833.00;6399940;22;45446;-75
2024/03/01 06:41:05;;;;;;;;;0.33;0.00;;;;;21.63;40.76;99831.16;6400287;22;45511;-76
2024/03/01 06:43:31;;;;;;;;;0.00;0.00;;;;;21.58;40.89;99821.19;6400006;22;45282;-75
2024/03/01 06:45:56;;;;;;;;;1.00;0.00;;;;;21.62;40.49;99814.47;6400483;22;46072;-76
2024/03/01 06:48:21;;;;;;;;;0.00;0.00;;;;;21.63;40.64;99808.16;6399765;22;58042;-76
2024/03/01 06:50:47;;;;;;;;;0.00;0.00;;;;;21.59;40.75;99787.59;6399960;22;57305;-76
2024/03/01 06:53:13;;;;;;;;;1.00;0.00;;;;;21.65;40.56;99791.28;6400658;22;45319;-75
2024/03/01 06:55:38;;;;;;;;;0.00;0.00;;;;;21.55;40.89;99738.72;6371240;22;45868;-76
2024/03/01 06:58:03;;;;;;;;;0.33;0.00;;;;;21.63;40.92;99765.81;6399685;22;48134;-77
2024/03/01 07:00:30;;;;;;;;;0.00;0.00;;;;;21.63;41.06;99752.56;6399814;22;59447;-78
2024/03/01 07:02:56;;;;;;;;;0.00;0.00;;;;;21.55;41.03;99755.41;6398872;22;45252;-76
2024/03/01 07:05:21;;;;;;;;;2.00;0.00;;;;;21.63;41.22;99743.81;6400320;22;45597;-76
2024/03/01 07:07:46;;;;;;;;;0.00;0.00;;;;;21.62;41.12;99750.94;6399946;22;45346;-75
2024/03/01 07:10:12;;;;;;;;;0.00;0.00;;;;;21.46;41.18;99714.31;6399936;22;45299;-76
2024/03/01 07:12:38;;;;;;;;;0.00;0.00;;;;;21.58;40.89;99733.84;6399247;22;45502;-75
2024/03/01 07:15:05;;;;;;;;;0.33;0.33;;;;;21.62;40.91;99753.59;6399249;22;59988;-75
2024/03/01 07:17:30;;;;;;;;;0.00;0.00;;;;;21.56;40.79;99743.00;6400250;22;45355;-74
2024/03/01 07:19:56;;;;;;;;;0.00;0.00;;;;;21.55;41.21;99730.78;6400203;22;45320;-75
2024/03/01 07:22:21;;;;;;;;;0.00;0.00;;;;;21.56;41.26;99733.25;6399841;22;55292;-76
2024/03/01 07:24:46;;;;;;;;;0.00;0.00;;;;;21.47;40.73;99716.75;6400094;22;45282;-77
2024/03/01 07:27:12;;;;;;;;;0.00;0.00;;;;;21.63;40.64;99730.56;6399860;22;45341;-80
2024/03/01 07:29:37;;;;;;;;;0.00;0.00;;;;;21.63;40.99;99727.94;6400720;22;45289;-79
2024/03/01 07:32:02;;;;;;;;;0.00;0.00;;;;;21.32;40.82;99671.97;6400019;22;56227;-77
2024/03/01 07:34:28;;;;;;;;;0.00;0.00;;;;;21.65;41.39;99703.91;6400227;22;45337;-77
2024/03/01 07:36:53;;;;;;;;;1.00;0.00;;;;;21.67;41.28;99709.81;6398625;22;55412;-77
2024/03/01 07:39:19;;;;;;;;;0.00;0.00;;;;;21.65;41.34;99688.03;6398925;22;51640;-77
2024/03/01 07:41:44;;;;;;;;;0.00;0.00;;;;;21.48;41.54;99656.69;6399664;22;45422;-78
2024/03/01 07:44:09;;;;;;;;;1.00;0.00;;;;;21.69;41.07;99676.81;6400129;22;45249;-78
2024/03/01 07:46:37;;;;;;;;;2.00;0.00;;;;;21.69;41.08;99673.34;6395246;22;45465;-80
2024/03/01 07:49:03;;;;;;;;;0.00;0.00;;;;;21.64;41.47;99663.41;6362844;22;45347;-80
2024/03/01 07:51:28;;;;;;;;;0.00;0.00;;;;;21.57;41.00;99650.16;6395049;22;45733;-80
2024/03/01 07:53:54;;;;;;;;;2.00;0.00;;;;;21.69;41.03;99668.88;6394163;22;56774;-79
2024/03/01 07:56:22;;;;;;;;;0.00;0.00;;;;;21.37;41.40;99603.38;6396327;22;45858;-79
2024/03/01 07:59:00;;;;;;;;;0.00;0.00;;;;;21.68;41.29;99640.78;6396527;22;45714;-79
2024/03/01 08:01:25;;;;;;;;;0.00;0.00;;;;;21.59;41.00;99634.09;6396738;22;45425;-79
2024/03/01 08:03:51;;;;;;;;;0.00;0.00;;;;;21.68;40.92;99646.06;6395573;22;47256;-79
2024/03/01 08:06:16;;;;;;;;;1.00;0.00;;;;;21.56;41.27;99623.91;6396416;22;45590;-78
2024/03/01 08:08:44;;;;;;;;;0.67;0.00;;;;;21.67;41.45;99639.16;6367302;22;45272;-80
2024/03/01 08:11:11;;;;;;;;;0.33;0.00;;;;;21.68;41.39;99624.06;6396790;22;45347;-80
2024/03/01 08:13:37;;;;;;;;;0.00;0.00;;;;;21.39;41.07;99579.38;6395141;22;47267;-80
2024/03/01 08:16:09;;;;;;;;;0.00;0.00;;;;;21.65;41.23;99617.34;6396551;22;45925;-80
2024/03/01 08:18:37;;;;;;;;;0.00;0.00;;;;;21.58;40.87;99600.69;6395982;22;45338;-80
2024/03/01 08:21:05;;;;;;;;;0.00;0.00;;;;;21.61;40.96;99624.09;6396293;22;45590;-80
2024/03/01 08:23:40;;;;;;;;;0.00;0.00;;;;;21.65;41.16;99625.31;6395629;22;46552;-81
2024/03/01 08:26:14;;;;;;;;;0.00;0.00;;;;;21.65;41.28;99622.66;6396654;22;45201;-80
2024/03/01 08:28:42;;;;;;;;;2.00;0.33;;;;;21.65;41.55;99621.88;6396158;22;45285;-80
2024/03/01 08:31:23;;;;;;;;;0.00;0.00;;;;;21.65;41.10;99613.94;6396708;22;45240;-80
2024/03/01 08:33:57;;;;;;;;;0.00;0.00;;;;;21.62;41.37;99615.16;6395866;22;46279;-80
2024/03/01 08:36:22;;;;;;;;;0.00;0.00;;;;;21.63;41.32;99608.81;6395295;22;45331;-79
2024/03/01 08:39:05;;;;;;;;;1.00;1.00;;;;;21.26;41.70;99556.41;6395447;22;45265;-80
2024/03/01 08:41:30;;;;;;;;;1.33;0.00;;;;;21.64;41.22;99621.03;6396615;22;45711;-79
2024/03/01 08:43:57;;;;;;;;;0.00;0.00;;;;;21.65;41.11;99619.22;6396068;22;45384;-80
2024/03/01 08:46:30;;;;;;;;;0.00;0.00;;;;;21.54;41.54;99596.84;6395889;22;45317;-81
2024/03/01 08:48:55;;;;;;;;;0.00;0.00;;;;;21.55;41.32;99604.56;6397707;22;45425;-79
2024/03/01 08:51:21;;;;;;;;;0.00;0.00;;;;;21.62;41.01;99631.81;6368656;22;45387;-81
2024/03/01 08:54:00;;;;;;;;;0.00;0.00;;;;;21.67;41.13;99649.75;6397688;22;45795;-80
2024/03/01 08:56:34;;;;;;;;;0.00;0.00;;;;;21.35;41.04;99588.72;6398483;22;45473;-80
2024/03/01 08:59:00;;;;;;;;;0.00;0.00;;;;;21.68;41.41;99634.66;6397541;22;45157;-80
2024/03/01 09:01:40;;;;;;;;;0.33;0.00;;;;;21.59;41.37;99634.09;6398015;22;45463;-80
2024/03/01 09:04:21;;;;;;;;;0.33;0.00;;;;;21.67;41.52;99628.56;6396723;22;46863;-81
2024/03/01 09:06:56;;;;;;;;;0.00;0.00;;;;;21.67;41.54;99631.22;6396419;22;45352;-82
2024/03/01 09:09:23;;;;;;;;;0.00;0.00;;;;;21.62;41.55;99621.22;6397479;22;45237;-81
2024/03/01 09:11:51;;;;;;;;;1.00;0.00;;;;;21.67;41.28;99623.28;6397302;22;45227;-81
2024/03/01 09:14:28;;;;;;;;;0.33;0.00;;;;;21.60;41.11;99615.34;6368640;22;46116;-81
2024/03/01 09:16:54;;;;;;;;;0.67;0.67;;;;;21.68;41.30;99610.84;6397052;22;45388;-81
2024/03/01 09:19:23;;;;;;;;;1.00;0.00;;;;;21.67;41.32;99615.34;6396805;22;56691;-81
2024/03/01 09:21:48;;;;;;;;;0.00;0.00;;;;;21.67;41.29;99610.03;6397143;22;45343;-81
2024/03/01 09:24:16;;;;;;;;;0.00;0.00;;;;;21.68;41.73;99600.25;6397871;22;45311;-81
2024/03/01 09:26:42;;;;;;;;;0.00;0.00;;;;;21.68;41.23;99605.53;6369127;22;45860;-81
2024/03/01 09:29:15;;;;;;;;;0.00;0.00;;;;;21.55;41.49;99588.69;6396758;22;45800;-82
2024/03/01 09:31:41;;;;;;;;;0.00;0.00;;;;;21.28;41.82;99534.00;6397602;22;45752;-81
2024/03/01 09:34:09;;;;;;;;;0.00;0.00;;;;;21.68;41.80;99614.31;6397034;22;46728;-81
2024/03/01 09:36:34;;;;;;;;;0.00;0.00;;;;;20.78;42.02;99476.28;6396926;22;45423;-82
2024/03/01 09:39:04;;;;;;;;;0.00;0.00;;;;;21.65;41.62;99611.28;6398414;22;45251;-82
2024/03/01 09:41:39;;;;;;;;;0.00;0.00;;;;;21.68;41.60;99603.72;6397766;22;45254;-82
2024/03/01 09:44:42;;;;;;;;;0.00;0.00;;;;;21.70;41.77;99619.41;6397616;22;46129;-82
2024/03/01 09:47:29;;;;;;;;;0.00;0.00;;;;;21.40;42.00;99581.00;6266217;22;45301;-82
2024/03/01 09:49:54;;;;;;;;;0.00;0.00;;;;;21.69;41.37;99613.28;6267617;22;45371;-82
2024/03/01 09:52:33;;;;;;;;;2.33;1.00;;;;;21.59;41.65;99619.03;6267510;22;45310;-81
2024/03/01 09:55:27;;;;;;;;;1.00;1.00;;;;;21.50;41.80;99607.84;6268197;22;46410;-82
2024/03/01 09:58:07;;;;;;;;;0.00;0.00;;;;;21.70;41.27;99625.50;6266852;22;45393;-82
2024/03/01 10:00:44;;;;;;;;;0.00;0.00;;;;;21.59;41.86;99591.75;6267996;22;45306;-82
2024/03/01 10:03:15;;;;;;;;;1.67;0.67;;;;;21.68;41.89;99613.47;6268142;22;45501;-82
2024/03/01 10:06:11;;;;;;;;;0.00;0.00;;;;;21.69;41.66;99634.47;6266583;22;46815;-82
2024/03/01 10:08:47;;;;;;;;;0.00;0.00;;;;;21.69;41.31;99623.88;6267807;22;45362;-82
2024/03/01 10:11:43;;;;;;;;;0.00;0.00;;;;;21.68;41.83;99640.78;6267061;22;45399;-82
2024/03/01 10:14:47;;;;;;;;;2.00;1.00;;;;;21.68;41.78;99661.94;6267336;22;45415;-81
2024/03/01 10:17:18;;;;;;;;;0.00;0.00;;;;;21.27;41.18;99572.06;6144811;23;45452;-81
2024/03/01 10:20:06;;;;;;;;;0.00;0.00;;;;;21.63;41.77;99653.81;6144873;23;45750;-82
2024/03/01 10:23:02;;;;;;;;;0.00;0.00;;;;;21.67;41.73;99647.09;6144757;23;45224;-81
2024/03/01 10:25:44;;;;;;;;;0.00;0.00;;;;;21.68;41.38;99639.97;6267682;22;45276;-81
2024/03/01 10:28:30;;;;;;;;;0.00;0.00;;;;;21.69;41.82;99636.31;6240684;22;47087;-81
2024/03/01 10:31:15;;;;;;;;;1.67;0.00;;;;;21.68;41.36;99627.53;6267428;22;45390;-81
2024/03/01 10:33:52;;;;;;;;;0.00;0.00;;;;;21.69;41.27;99625.72;6266325;22;45430;-82
2024/03/01 10:36:34;;;;;;;;;1.33;0.00;;;;;21.69;41.34;99620.41;6267629;22;45262;-81
2024/03/01 10:39:06;;;;;;;;;1.33;0.00;;;;;21.69;41.67;99620.41;6267077;22;46670;-82
2024/03/01 10:41:44;;;;;;;;;0.00;0.00;;;;;21.69;41.64;99621.22;6266516;22;45421;-82
2024/03/01 10:44:51;;;;;;;;;1.00;0.00;;;;;21.70;41.20;99628.13;6267004;22;45372;-81
2024/03/01 10:47:26;;;;;;;;;0.00;0.00;;;;;21.73;41.50;99632.19;6266322;22;45617;-82
2024/03/01 10:50:16;;;;;;;;;0.00;0.00;;;;;21.66;40.99;99623.47;6266766;22;46619;-82
2024/03/01 10:52:48;;;;;;;;;0.67;0.00;;;;;21.73;41.26;99630.38;6289654;22;45468;-81
2024/03/01 10:55:19;;;;;;;;;1.00;0.00;;;;;21.58;41.80;99611.28;6396897;22;45352;-82
2024/03/01 10:58:05;;;;;;;;;0.67;0.00;;;;;21.71;41.27;99653.59;6395849;22;45358;-82
2024/03/01 11:00:34;;;;;;;;;0.00;0.00;;;;;21.69;41.18;99645.06;6397217;22;46528;-82
2024/03/01 11:03:06;;;;;;;;;1.00;1.00;;;;;21.69;41.41;99653.00;6396989;22;45410;-82
2024/03/01 11:05:39;;;;;;;;;0.00;0.00;;;;;21.71;41.01;99645.66;6397705;22;45346;-82
2024/03/01 11:08:14;;;;;;;;;0.00;0.00;;;;;21.84;41.14;99673.13;6396692;22;45342;-83
2024/03/01 11:10:48;;;;;;;;;0.00;0.00;;;;;21.86;41.40;99663.13;6396442;22;46417;-83
2024/03/01 11:13:19;;;;;;;;;0.00;0.00;;;;;21.71;41.02;99629.78;6396526;22;45330;-83
2024/03/01 11:15:47;;;;;;;;;0.00;0.00;;;;;21.87;40.67;99658.66;6396648;22;45344;-83
2024/03/01 11:18:17;;;;;;;;;0.00;0.00;;;;;21.93;41.05;99666.63;6397052;22;45450;-83
2024/03/01 11:21:04;;;;;;;;;1.33;0.00;;;;;21.94;41.27;99665.59;6396300;22;46592;-83
2024/03/01 11:23:42;;;;;;;;;0.33;0.00;;;;;21.93;40.90;99665.81;6397055;22;45311;-82
2024/03/01 11:26:19;;;;;;;;;0.00;0.00;;;;;22.00;40.69;99671.88;6396234;22;45392;-82
2024/03/01 11:28:54;;;;;;;;;0.00;0.00;;;;;21.98;40.65;99660.69;6395711;22;45557;-82
2024/03/01 11:31:35;;;;;;;;;0.00;0.00;;;;;22.02;41.00;99661.91;6396121;22;46353;-82
2024/03/01 11:34:31;;;;;;;;;0.00;0.00;;;;;22.01;40.48;99656.81;6397365;22;45406;-82
2024/03/01 11:37:11;;;;;;;;;0.00;0.00;;;;;22.05;40.68;99666.78;6397141;22;45309;-81